createdAt,value
2022-08-03T00:02:34.892Z,7.70
2022-08-03T00:05:38.346Z,7.18
2022-08-03T00:11:44.204Z,6.82
2022-08-03T00:14:47.226Z,6.60
2022-08-03T00:17:53.594Z,6.88
2022-08-03T00:20:57.112Z,6.50
2022-08-03T00:24:00.728Z,7.07
2022-08-03T00:27:03.780Z,7.40
2022-08-03T00:30:07.682Z,7.00
2022-08-03T00:33:11.398Z,7.38
2022-08-03T00:36:14.399Z,7.40
2022-08-03T00:42:21.153Z,7.78
2022-08-03T00:45:26.149Z,7.40
2022-08-03T00:48:33.352Z,7.43
2022-08-03T00:51:36.924Z,6.88
2022-08-03T00:54:40.724Z,6.55
2022-08-03T00:57:44.416Z,6.72
2022-08-03T01:00:47.492Z,6.68
2022-08-03T01:03:50.511Z,7.00
2022-08-03T01:07:14.620Z,6.30
2022-08-03T01:10:23.665Z,6.53
2022-08-03T01:14:04.519Z,6.60
2022-08-03T01:17:14.089Z,6.60
2022-08-03T01:20:19.102Z,6.10
2022-08-03T01:23:47.920Z,6.05
2022-08-03T01:27:06.643Z,7.05
2022-08-03T01:30:12.591Z,6.70
2022-08-03T01:33:27.290Z,6.50
2022-08-03T01:36:37.168Z,8.30
2022-08-03T01:39:41.798Z,6.15
2022-08-03T01:42:47.147Z,5.95
2022-08-03T01:45:50.600Z,5.78
2022-08-03T01:48:54.570Z,6.17
2022-08-03T01:52:04.379Z,7.70
2022-08-03T01:55:10.067Z,6.22
2022-08-03T01:58:16.169Z,5.85
2022-08-03T02:01:23.626Z,6.25
2022-08-03T02:04:28.646Z,6.05
2022-08-03T02:07:35.281Z,6.50
2022-08-03T02:10:41.325Z,6.47
2022-08-03T02:13:46.637Z,6.70
2022-08-03T02:16:50.368Z,6.35
2022-08-03T02:19:54.701Z,6.10
2022-08-03T02:26:05.502Z,6.72
2022-08-03T02:29:20.901Z,7.32
2022-08-03T02:32:47.783Z,6.72
2022-08-03T02:35:52.610Z,6.55
2022-08-03T02:38:59.791Z,6.53
2022-08-03T02:42:03.463Z,6.40
2022-08-03T02:45:13.250Z,6.25
2022-08-03T02:48:21.062Z,6.18
2022-08-03T02:51:24.700Z,6.60
2022-08-03T02:54:29.174Z,6.40
2022-08-03T02:57:35.731Z,6.30
2022-08-03T03:00:39.918Z,6.35
2022-08-03T03:06:49.648Z,6.20
2022-08-03T03:09:53.483Z,6.55
2022-08-03T03:12:58.739Z,6.30
2022-08-03T03:16:05.359Z,6.63
2022-08-03T03:19:10.036Z,6.25
2022-08-03T03:22:15.439Z,5.70
2022-08-03T03:25:20.139Z,5.63
2022-08-03T03:28:26.060Z,6.68
2022-08-03T03:31:29.393Z,6.10
2022-08-03T03:34:32.759Z,6.50
2022-08-03T03:37:36.834Z,6.47
2022-08-03T03:40:40.141Z,6.63
2022-08-03T03:43:44.296Z,5.93
2022-08-03T03:49:52.480Z,6.60
2022-08-03T03:52:55.516Z,7.03
2022-08-03T03:56:02.358Z,6.30
2022-08-03T03:59:06.310Z,6.50
2022-08-03T04:02:10.559Z,6.22
2022-08-03T04:05:33.198Z,6.60
2022-08-03T04:08:54.974Z,7.30
2022-08-03T04:12:01.687Z,6.35
2022-08-03T04:15:06.954Z,6.38
2022-08-03T04:18:14.509Z,6.22
2022-08-03T04:21:20.552Z,6.43
2022-08-03T04:24:26.461Z,6.28
2022-08-03T04:27:35.683Z,6.32
2022-08-03T04:30:40.862Z,6.30
2022-08-03T04:33:45.672Z,6.43
2022-08-03T04:36:55.530Z,6.40
2022-08-03T04:40:03.783Z,6.65
2022-08-03T04:43:08.734Z,6.65
2022-08-03T04:46:12.381Z,7.43
2022-08-03T04:49:15.610Z,6.80
2022-08-03T04:52:18.933Z,7.33
2022-08-03T04:55:29.246Z,7.10
2022-08-03T04:58:32.376Z,7.47
2022-08-03T05:01:35.465Z,7.13
2022-08-03T05:04:41.405Z,6.93
2022-08-03T05:07:45.272Z,7.35
2022-08-03T05:10:48.571Z,6.80
2022-08-03T05:13:51.642Z,6.70
2022-08-03T05:16:54.676Z,6.82
2022-08-03T05:19:58.181Z,6.45
2022-08-03T05:23:02.535Z,6.55
2022-08-03T05:26:05.659Z,6.90
2022-08-03T05:29:09.132Z,7.65
2022-08-03T05:32:12.187Z,7.50
2022-08-03T05:36:00.477Z,6.50
2022-08-03T05:38:38.266Z,8.55
2022-08-03T05:41:41.257Z,6.38
2022-08-03T05:44:44.379Z,6.40
2022-08-03T05:47:48.547Z,6.88
2022-08-03T05:53:54.325Z,6.50
2022-08-03T05:56:57.367Z,7.45
2022-08-03T06:00:00.666Z,7.20
2022-08-03T06:03:03.905Z,7.50
2022-08-03T06:06:07.047Z,7.10
2022-08-03T06:09:13.234Z,7.03
2022-08-03T06:12:16.580Z,6.50
2022-08-03T06:15:19.931Z,7.35
2022-08-03T06:18:24.644Z,6.80
2022-08-03T06:21:27.699Z,7.43
2022-08-03T06:24:31.001Z,8.15
2022-08-03T06:27:37.237Z,7.97
2022-08-03T06:30:41.332Z,8.20
2022-08-03T06:34:30.808Z,7.45
2022-08-03T06:37:07.373Z,8.50
2022-08-03T06:40:13.913Z,8.02
2022-08-03T06:43:17.194Z,7.78
2022-08-03T06:46:20.539Z,8.15
2022-08-03T06:49:23.745Z,7.73
2022-08-03T06:52:37.640Z,7.57
2022-08-03T06:55:42.466Z,7.55
2022-08-03T06:58:45.719Z,8.35
2022-08-03T07:01:48.768Z,7.35
2022-08-03T07:04:52.664Z,7.40
2022-08-03T07:07:57.509Z,7.53
2022-08-03T07:11:00.506Z,6.95
2022-08-03T07:14:03.617Z,8.32
2022-08-03T07:17:11.806Z,7.82
2022-08-03T07:20:15.830Z,7.30
2022-08-03T07:23:19.496Z,7.45
2022-08-03T07:26:22.564Z,7.32
2022-08-03T07:29:25.678Z,7.07
2022-08-03T07:32:32.003Z,6.80
2022-08-03T07:35:35.067Z,7.20
2022-08-03T07:38:38.215Z,6.43
2022-08-03T07:41:41.369Z,5.70
2022-08-03T07:44:45.017Z,6.13
2022-08-03T07:47:53.218Z,5.88
2022-08-03T07:50:56.943Z,6.10
2022-08-03T07:54:01.414Z,5.65
2022-08-03T07:57:04.586Z,5.30
2022-08-03T08:00:14.419Z,5.40
2022-08-03T08:03:17.691Z,4.88
2022-08-03T08:06:21.538Z,5.53
2022-08-03T08:09:24.657Z,5.00
2022-08-03T08:12:28.416Z,6.03
2022-08-03T08:15:32.337Z,5.28
2022-08-03T08:18:35.490Z,5.80
2022-08-03T08:21:53.063Z,6.22
2022-08-03T08:25:01.848Z,6.07
2022-08-03T08:28:31.872Z,6.15
2022-08-03T08:31:28.274Z,6.68
2022-08-03T08:34:31.325Z,9.48
2022-08-03T08:37:36.077Z,9.65
2022-08-03T08:40:39.120Z,8.25
2022-08-03T08:43:44.130Z,7.50
2022-08-03T08:46:48.398Z,7.78
2022-08-03T08:53:17.611Z,7.57
2022-08-03T08:56:28.445Z,7.90
2022-08-03T08:59:48.905Z,7.50
2022-08-03T09:02:52.712Z,7.15
2022-08-03T09:05:56.583Z,7.50
2022-08-03T09:08:59.761Z,7.28
2022-08-03T09:12:27.169Z,7.22
2022-08-03T09:15:34.260Z,7.40
2022-08-03T09:18:37.710Z,7.95
2022-08-03T09:21:40.847Z,8.03
2022-08-03T09:25:24.290Z,7.80
2022-08-03T09:29:00.435Z,8.13
2022-08-03T09:32:05.057Z,7.60
2022-08-03T09:35:09.471Z,8.10
2022-08-03T09:38:15.778Z,7.85
2022-08-03T09:41:20.397Z,8.95
2022-08-03T09:44:42.842Z,8.45
2022-08-03T09:47:45.901Z,8.90
2022-08-03T09:50:58.623Z,9.00
2022-08-03T09:54:31.259Z,9.20
2022-08-03T09:57:34.533Z,8.20
2022-08-03T10:01:01.619Z,7.93
2022-08-03T10:04:05.406Z,8.65
2022-08-03T10:07:11.142Z,8.27
2022-08-03T10:10:30.318Z,8.75
2022-08-03T10:13:35.230Z,8.68
2022-08-03T10:16:41.604Z,8.00
2022-08-03T10:19:45.193Z,7.78
2022-08-03T10:22:48.582Z,8.60
2022-08-03T10:25:58.811Z,8.18
2022-08-03T10:29:04.811Z,7.72
2022-08-03T10:32:41.539Z,8.82
2022-08-03T10:35:46.132Z,8.52
2022-08-03T10:38:57.651Z,7.43
2022-08-03T10:42:02.716Z,8.57
2022-08-03T10:45:10.810Z,8.20
2022-08-03T10:48:14.749Z,8.60
2022-08-03T10:51:18.176Z,8.20
2022-08-03T10:54:58.615Z,8.40
2022-08-03T10:58:07.940Z,8.45
2022-08-03T11:01:14.397Z,8.25
2022-08-03T11:04:22.288Z,10.20
2022-08-03T11:07:26.436Z,10.20
2022-08-03T11:13:36.544Z,7.47
2022-08-03T11:16:42.218Z,7.47
2022-08-03T11:19:57.926Z,8.70
2022-08-03T11:23:02.295Z,7.97
2022-08-03T11:26:12.132Z,9.60
2022-08-03T11:29:31.772Z,9.05
2022-08-03T11:32:46.551Z,17.90
2022-08-03T11:36:03.104Z,8.68
2022-08-03T11:39:17.203Z,8.52
2022-08-03T11:42:40.815Z,9.32
2022-08-03T11:46:02.811Z,8.82
2022-08-03T11:49:10.931Z,11.60
2022-08-03T11:52:15.785Z,8.45
2022-08-03T11:55:22.442Z,8.35
2022-08-03T11:59:16.989Z,7.97
2022-08-03T12:01:50.310Z,8.53
2022-08-03T12:04:55.095Z,11.03
2022-08-03T12:08:06.173Z,13.68
2022-08-03T12:11:13.529Z,10.18
2022-08-03T12:14:48.980Z,9.48
2022-08-03T12:17:43.751Z,9.35
2022-08-03T12:20:47.350Z,9.27
2022-08-03T12:23:51.185Z,8.00
2022-08-03T12:26:59.032Z,7.55
2022-08-03T12:30:04.412Z,8.32
2022-08-03T12:33:23.786Z,8.63
2022-08-03T12:36:29.311Z,8.70
2022-08-03T12:39:32.371Z,9.43
2022-08-03T12:42:37.216Z,10.27
2022-08-03T12:45:40.422Z,9.73
2022-08-03T12:49:11.759Z,7.28
2022-08-03T12:52:16.894Z,7.15
2022-08-03T12:55:24.047Z,8.32
2022-08-03T12:58:35.931Z,6.90
2022-08-03T13:01:49.151Z,7.47
2022-08-03T13:04:58.636Z,6.68
2022-08-03T13:08:01.807Z,6.97
2022-08-03T13:11:47.565Z,7.22
2022-08-03T13:14:49.533Z,7.03
2022-08-03T13:17:53.434Z,6.75
2022-08-03T13:20:56.504Z,7.18
2022-08-03T13:23:59.530Z,7.80
2022-08-03T13:28:03.922Z,7.13
2022-08-03T13:30:29.812Z,7.28
2022-08-03T13:33:33.741Z,7.38
2022-08-03T13:37:06.399Z,10.68
2022-08-03T13:40:02.769Z,7.97
2022-08-03T13:43:06.744Z,8.18
2022-08-03T13:46:09.743Z,8.70
2022-08-03T13:49:12.866Z,8.30
2022-08-03T13:52:16.488Z,7.35
2022-08-03T13:55:19.701Z,7.75
2022-08-03T13:58:22.855Z,7.57
2022-08-03T14:01:54.507Z,11.90
2022-08-03T14:04:49.786Z,11.57
2022-08-03T14:07:52.841Z,7.22
2022-08-03T14:11:01.284Z,6.53
2022-08-03T14:14:04.468Z,6.65
2022-08-03T14:17:07.507Z,6.78
2022-08-03T14:20:38.897Z,6.53
2022-08-03T14:23:40.486Z,6.63
2022-08-03T14:26:44.610Z,6.60
2022-08-03T14:29:47.553Z,6.57
2022-08-03T14:32:50.481Z,6.50
2022-08-03T14:35:54.076Z,6.57
2022-08-03T14:39:01.067Z,6.45
2022-08-03T14:42:04.607Z,6.13
2022-08-03T14:45:09.656Z,6.68
2022-08-03T14:50:32.161Z,6.65
2022-08-03T14:54:57.298Z,6.60
2022-08-03T14:58:03.174Z,6.25
2022-08-03T15:02:04.650Z,6.63
2022-08-03T15:04:31.009Z,7.80
2022-08-03T15:07:34.115Z,7.38
2022-08-03T15:10:40.555Z,6.97
2022-08-03T15:13:47.704Z,5.82
2022-08-03T15:16:51.203Z,6.32
2022-08-03T15:20:03.796Z,6.95
2022-08-03T15:23:11.968Z,5.57
2022-08-03T15:26:30.833Z,5.60
2022-08-03T15:30:04.715Z,5.38
2022-08-03T15:33:00.148Z,5.90
2022-08-03T15:36:03.655Z,6.20
2022-08-03T15:39:07.471Z,6.25
2022-08-03T15:42:10.561Z,4.85
2022-08-03T15:45:13.622Z,4.65
2022-08-03T15:48:21.071Z,4.60
2022-08-03T15:51:29.650Z,4.80
2022-08-03T15:54:32.656Z,4.50
2022-08-03T15:59:03.989Z,4.93
2022-08-03T16:00:59.717Z,4.78
2022-08-03T16:04:02.893Z,5.40
2022-08-03T16:10:19.275Z,5.10
2022-08-03T16:13:23.025Z,5.47
2022-08-03T16:16:46.026Z,5.47
2022-08-03T16:19:49.844Z,5.37
2022-08-03T16:22:52.988Z,5.70
2022-08-03T16:25:56.051Z,5.45
2022-08-03T16:28:59.057Z,6.30
2022-08-03T16:32:09.615Z,6.40
2022-08-03T16:35:19.167Z,5.45
2022-08-03T16:38:23.539Z,5.90
2022-08-03T16:41:27.026Z,5.20
2022-08-03T16:44:50.534Z,4.68
2022-08-03T16:48:01.622Z,5.10
2022-08-03T16:51:09.681Z,4.55
2022-08-03T16:54:14.268Z,5.15
2022-08-03T17:00:41.597Z,4.60
2022-08-03T17:04:02.222Z,5.10
2022-08-03T17:07:07.702Z,4.00
2022-08-03T17:10:13.535Z,3.78
2022-08-03T17:16:25.833Z,4.00
2022-08-03T17:19:32.275Z,4.07
2022-08-03T17:22:40.266Z,4.82
2022-08-03T17:26:01.994Z,4.15
2022-08-03T17:29:12.528Z,5.15
2022-08-03T17:32:21.698Z,4.47
2022-08-03T17:35:36.577Z,4.22
2022-08-03T17:38:42.573Z,4.95
2022-08-03T17:41:48.941Z,4.30
2022-08-03T17:44:54.315Z,4.18
2022-08-03T17:47:59.630Z,4.28
2022-08-03T17:51:17.293Z,4.75
2022-08-03T17:54:31.521Z,5.68
2022-08-03T17:58:02.025Z,5.30
2022-08-03T18:01:59.126Z,5.90
2022-08-03T18:05:16.244Z,6.28
2022-08-03T18:08:30.873Z,5.07
2022-08-03T18:11:39.024Z,4.50
2022-08-03T18:14:57.378Z,4.28
2022-08-03T18:18:10.837Z,4.57
2022-08-03T18:21:16.677Z,5.50
2022-08-03T18:24:21.565Z,6.13
2022-08-03T18:27:45.552Z,6.35
2022-08-03T18:34:33.091Z,6.28
2022-08-03T18:37:52.160Z,5.40
2022-08-03T18:40:56.205Z,5.05
2022-08-03T18:44:06.870Z,5.57
2022-08-03T18:47:50.473Z,5.15
2022-08-03T18:51:28.518Z,4.60
2022-08-03T18:55:01.169Z,4.80
2022-08-03T18:58:29.244Z,4.10
2022-08-03T19:01:59.708Z,3.97
2022-08-03T19:05:08.783Z,4.35
2022-08-03T19:08:28.686Z,4.50
2022-08-03T19:12:13.189Z,5.50
2022-08-03T19:15:10.522Z,6.53
2022-08-03T19:18:18.579Z,8.27
2022-08-03T19:21:23.521Z,6.82
2022-08-03T19:24:27.907Z,5.60
2022-08-03T19:27:32.296Z,4.65
2022-08-03T19:34:03.239Z,4.50
2022-08-03T19:37:10.868Z,4.00
2022-08-03T19:40:19.772Z,4.30
2022-08-03T19:46:44.760Z,4.10
2022-08-03T19:50:05.098Z,4.60
2022-08-03T19:53:14.001Z,4.72
2022-08-03T19:56:23.498Z,4.05
2022-08-03T19:59:28.147Z,3.45
2022-08-03T20:02:31.448Z,3.55
2022-08-03T20:05:44.863Z,3.25
2022-08-03T20:08:54.885Z,3.08
2022-08-03T20:11:58.328Z,3.00
2022-08-03T20:15:01.872Z,3.80
2022-08-03T20:18:04.930Z,3.60
2022-08-03T20:21:15.217Z,3.35
2022-08-03T20:24:27.396Z,3.80
2022-08-03T20:28:06.668Z,3.70
2022-08-03T20:30:59.755Z,4.30
2022-08-03T20:34:03.163Z,4.35
2022-08-03T20:37:06.255Z,4.68
2022-08-03T20:40:12.996Z,5.25
2022-08-03T20:43:19.865Z,4.20
2022-08-03T20:46:31.032Z,4.15
2022-08-03T20:49:45.759Z,4.80
2022-08-03T20:52:50.540Z,5.38
2022-08-03T20:56:02.303Z,5.13
2022-08-03T20:59:14.923Z,5.10
2022-08-03T21:02:19.736Z,6.10
2022-08-03T21:05:51.266Z,4.75
2022-08-03T21:09:05.662Z,4.45
2022-08-03T21:12:18.432Z,5.75
2022-08-03T21:13:02.301Z,4.18
2022-08-03T21:13:04.350Z,6.60
2022-08-03T21:16:03.015Z,8.40
2022-08-03T21:18:55.469Z,5.68
2022-08-03T21:21:59.619Z,5.93
2022-08-03T21:25:09.042Z,6.40
2022-08-03T21:28:13.454Z,8.52
2022-08-03T21:31:26.841Z,8.10
2022-08-03T21:34:31.010Z,6.40
2022-08-03T21:37:34.255Z,5.90
2022-08-03T21:40:37.678Z,5.50
2022-08-03T21:43:40.737Z,5.43
2022-08-03T21:46:44.764Z,5.72
2022-08-03T21:50:08.811Z,5.25
2022-08-03T21:53:15.236Z,5.68
2022-08-03T21:56:20.629Z,5.70
2022-08-03T21:59:24.293Z,5.43
2022-08-03T22:02:32.507Z,5.22
2022-08-03T22:05:43.495Z,5.00
2022-08-03T22:08:48.544Z,5.00
2022-08-03T22:11:56.631Z,5.05
2022-08-03T22:15:02.774Z,4.95
2022-08-03T22:18:06.224Z,5.68
2022-08-03T22:21:12.554Z,5.30
2022-08-03T22:24:19.796Z,5.85
2022-08-03T22:27:30.837Z,5.15
2022-08-03T22:30:34.300Z,4.60
2022-08-03T22:33:38.666Z,4.72
2022-08-03T22:36:42.366Z,3.95
2022-08-03T22:39:46.153Z,4.60
2022-08-03T22:42:52.719Z,4.10
2022-08-03T22:46:09.803Z,4.57
2022-08-03T22:49:16.052Z,4.88
2022-08-03T22:52:19.318Z,4.72
2022-08-03T22:55:24.942Z,4.53
2022-08-03T22:58:28.288Z,5.18
2022-08-03T23:01:37.980Z,5.07
2022-08-03T23:04:42.412Z,5.38
2022-08-03T23:07:46.229Z,5.68
2022-08-03T23:10:50.715Z,6.93
2022-08-03T23:13:56.119Z,6.25
2022-08-03T23:17:03.950Z,6.57
2022-08-03T23:20:09.467Z,6.43
2022-08-03T23:23:13.014Z,9.07
2022-08-03T23:26:17.908Z,7.78
2022-08-03T23:29:22.527Z,7.47
2022-08-03T23:36:29.004Z,5.13
2022-08-03T23:39:15.351Z,5.53
2022-08-03T23:42:20.836Z,5.55
2022-08-03T23:45:25.532Z,5.68
2022-08-03T23:48:28.912Z,6.07
2022-08-03T23:51:37.679Z,6.68
2022-08-03T23:55:08.335Z,18.65
2022-08-03T23:58:32.824Z,5.72
